sensor_id;sensor_type;location;lat;lon;timestamp;P1;durP1;ratioP1;P2;durP2;ratioP2
2213;SDS011;1113;42.018;23.986;2022-08-19T00:00:18;8.83;;;7.93;;
2213;SDS011;1113;42.018;23.986;2022-08-19T00:02:46;8.53;;;7.73;;
2213;SDS011;1113;42.018;23.986;2022-08-19T00:05:13;9.00;;;7.93;;
2213;SDS011;1113;42.018;23.986;2022-08-19T00:07:40;9.63;;;8.73;;
2213;SDS011;1113;42.018;23.986;2022-08-19T00:10:08;9.63;;;8.60;;
2213;SDS011;1113;42.018;23.986;2022-08-19T00:12:35;12.60;;;10.10;;
2213;SDS011;1113;42.018;23.986;2022-08-19T00:15:03;10.83;;;9.67;;
2213;SDS011;1113;42.018;23.986;2022-08-19T00:17:29;9.27;;;8.43;;
2213;SDS011;1113;42.018;23.986;2022-08-19T00:19:57;8.93;;;8.13;;
2213;SDS011;1113;42.018;23.986;2022-08-19T00:22:24;10.13;;;9.13;;
2213;SDS011;1113;42.018;23.986;2022-08-19T00:24:52;10.33;;;8.90;;
2213;SDS011;1113;42.018;23.986;2022-08-19T00:27:18;15.90;;;11.77;;
2213;SDS011;1113;42.018;23.986;2022-08-19T00:29:45;11.90;;;10.70;;
2213;SDS011;1113;42.018;23.986;2022-08-19T00:32:11;11.33;;;8.87;;
2213;SDS011;1113;42.018;23.986;2022-08-19T00:34:38;10.00;;;9.20;;
2213;SDS011;1113;42.018;23.986;2022-08-19T00:40:09;10.93;;;9.90;;
2213;SDS011;1113;42.018;23.986;2022-08-19T00:42:35;10.63;;;9.53;;
2213;SDS011;1113;42.018;23.986;2022-08-19T00:45:02;10.03;;;9.13;;
2213;SDS011;1113;42.018;23.986;2022-08-19T00:50:38;10.70;;;9.70;;
2213;SDS011;1113;42.018;23.986;2022-08-19T00:53:06;10.70;;;9.60;;
2213;SDS011;1113;42.018;23.986;2022-08-19T00:55:34;12.13;;;10.03;;
2213;SDS011;1113;42.018;23.986;2022-08-19T00:58:01;11.60;;;10.50;;
2213;SDS011;1113;42.018;23.986;2022-08-19T01:00:29;10.67;;;9.57;;
2213;SDS011;1113;42.018;23.986;2022-08-19T01:02:56;10.87;;;9.90;;
2213;SDS011;1113;42.018;23.986;2022-08-19T01:05:23;11.47;;;10.27;;
2213;SDS011;1113;42.018;23.986;2022-08-19T01:07:52;11.47;;;10.37;;
2213;SDS011;1113;42.018;23.986;2022-08-19T01:10:20;10.97;;;9.90;;
2213;SDS011;1113;42.018;23.986;2022-08-19T01:12:48;11.33;;;10.33;;
2213;SDS011;1113;42.018;23.986;2022-08-19T01:15:16;10.23;;;9.23;;
2213;SDS011;1113;42.018;23.986;2022-08-19T01:17:44;10.17;;;9.27;;
2213;SDS011;1113;42.018;23.986;2022-08-19T01:20:11;11.40;;;10.30;;
2213;SDS011;1113;42.018;23.986;2022-08-19T01:22:40;10.40;;;9.30;;
2213;SDS011;1113;42.018;23.986;2022-08-19T01:25:08;10.53;;;9.50;;
2213;SDS011;1113;42.018;23.986;2022-08-19T01:27:38;11.17;;;9.97;;
2213;SDS011;1113;42.018;23.986;2022-08-19T01:30:06;10.77;;;9.73;;
2213;SDS011;1113;42.018;23.986;2022-08-19T01:32:33;12.40;;;10.17;;
2213;SDS011;1113;42.018;23.986;2022-08-19T01:35:00;10.43;;;9.53;;
2213;SDS011;1113;42.018;23.986;2022-08-19T01:37:28;10.20;;;9.20;;
2213;SDS011;1113;42.018;23.986;2022-08-19T01:39:56;10.97;;;10.07;;
2213;SDS011;1113;42.018;23.986;2022-08-19T01:42:23;10.80;;;9.70;;
2213;SDS011;1113;42.018;23.986;2022-08-19T01:44:49;10.90;;;9.77;;
2213;SDS011;1113;42.018;23.986;2022-08-19T01:47:16;12.00;;;10.80;;
2213;SDS011;1113;42.018;23.986;2022-08-19T01:49:42;11.50;;;10.30;;
2213;SDS011;1113;42.018;23.986;2022-08-19T01:52:09;11.10;;;10.00;;
2213;SDS011;1113;42.018;23.986;2022-08-19T01:54:36;10.40;;;9.30;;
2213;SDS011;1113;42.018;23.986;2022-08-19T01:57:05;9.60;;;8.80;;
2213;SDS011;1113;42.018;23.986;2022-08-19T01:59:33;10.77;;;9.80;;
2213;SDS011;1113;42.018;23.986;2022-08-19T02:02:01;10.70;;;9.73;;
2213;SDS011;1113;42.018;23.986;2022-08-19T02:04:29;11.63;;;10.40;;
2213;SDS011;1113;42.018;23.986;2022-08-19T02:06:57;11.73;;;10.57;;
2213;SDS011;1113;42.018;23.986;2022-08-19T02:09:42;11.03;;;9.83;;
2213;SDS011;1113;42.018;23.986;2022-08-19T02:12:10;10.90;;;9.90;;
2213;SDS011;1113;42.018;23.986;2022-08-19T02:14:36;12.57;;;9.63;;
2213;SDS011;1113;42.018;23.986;2022-08-19T02:17:03;10.83;;;9.73;;
2213;SDS011;1113;42.018;23.986;2022-08-19T02:19:29;11.30;;;10.20;;
2213;SDS011;1113;42.018;23.986;2022-08-19T02:21:57;11.10;;;10.00;;
2213;SDS011;1113;42.018;23.986;2022-08-19T02:24:24;11.03;;;10.03;;
2213;SDS011;1113;42.018;23.986;2022-08-19T02:26:51;10.47;;;9.47;;
2213;SDS011;1113;42.018;23.986;2022-08-19T02:29:19;14.07;;;9.67;;
2213;SDS011;1113;42.018;23.986;2022-08-19T02:31:45;11.90;;;10.70;;
2213;SDS011;1113;42.018;23.986;2022-08-19T02:34:12;11.10;;;10.07;;
2213;SDS011;1113;42.018;23.986;2022-08-19T02:36:39;9.67;;;8.87;;
2213;SDS011;1113;42.018;23.986;2022-08-19T02:39:07;10.83;;;9.80;;
2213;SDS011;1113;42.018;23.986;2022-08-19T02:41:33;11.20;;;10.10;;
2213;SDS011;1113;42.018;23.986;2022-08-19T02:44:01;11.43;;;10.23;;
2213;SDS011;1113;42.018;23.986;2022-08-19T02:46:31;11.43;;;10.40;;
2213;SDS011;1113;42.018;23.986;2022-08-19T02:48:59;11.67;;;10.57;;
2213;SDS011;1113;42.018;23.986;2022-08-19T02:51:27;11.97;;;10.77;;
2213;SDS011;1113;42.018;23.986;2022-08-19T02:53:55;12.87;;;11.67;;
2213;SDS011;1113;42.018;23.986;2022-08-19T02:56:22;12.67;;;11.57;;
2213;SDS011;1113;42.018;23.986;2022-08-19T02:58:49;11.13;;;10.03;;
2213;SDS011;1113;42.018;23.986;2022-08-19T03:01:19;11.77;;;10.63;;
2213;SDS011;1113;42.018;23.986;2022-08-19T03:03:47;11.43;;;10.33;;
2213;SDS011;1113;42.018;23.986;2022-08-19T03:06:14;10.87;;;9.93;;
2213;SDS011;1113;42.018;23.986;2022-08-19T03:08:43;11.73;;;10.63;;
2213;SDS011;1113;42.018;23.986;2022-08-19T03:11:12;12.03;;;10.90;;
2213;SDS011;1113;42.018;23.986;2022-08-19T03:13:39;10.27;;;9.37;;
2213;SDS011;1113;42.018;23.986;2022-08-19T03:16:05;11.03;;;9.93;;
2213;SDS011;1113;42.018;23.986;2022-08-19T03:18:32;12.53;;;11.30;;
2213;SDS011;1113;42.018;23.986;2022-08-19T03:21:00;12.50;;;11.30;;
2213;SDS011;1113;42.018;23.986;2022-08-19T03:23:26;12.43;;;11.20;;
2213;SDS011;1113;42.018;23.986;2022-08-19T03:26:11;35.00;;;11.90;;
2213;SDS011;1113;42.018;23.986;2022-08-19T03:28:39;12.80;;;10.80;;
2213;SDS011;1113;42.018;23.986;2022-08-19T03:31:07;11.20;;;10.10;;
2213;SDS011;1113;42.018;23.986;2022-08-19T03:33:34;11.07;;;10.03;;
2213;SDS011;1113;42.018;23.986;2022-08-19T03:36:03;11.80;;;10.57;;
2213;SDS011;1113;42.018;23.986;2022-08-19T03:38:30;12.07;;;10.90;;
2213;SDS011;1113;42.018;23.986;2022-08-19T03:40:57;11.93;;;9.97;;
2213;SDS011;1113;42.018;23.986;2022-08-19T03:43:23;11.77;;;10.67;;
2213;SDS011;1113;42.018;23.986;2022-08-19T03:45:59;13.53;;;12.33;;
2213;SDS011;1113;42.018;23.986;2022-08-19T03:48:25;12.23;;;10.97;;
2213;SDS011;1113;42.018;23.986;2022-08-19T03:50:52;12.27;;;11.07;;
2213;SDS011;1113;42.018;23.986;2022-08-19T03:53:20;13.60;;;12.20;;
2213;SDS011;1113;42.018;23.986;2022-08-19T03:55:46;16.67;;;10.47;;
2213;SDS011;1113;42.018;23.986;2022-08-19T03:58:13;12.00;;;10.90;;
2213;SDS011;1113;42.018;23.986;2022-08-19T04:00:41;11.57;;;10.50;;
2213;SDS011;1113;42.018;23.986;2022-08-19T04:03:08;10.77;;;9.77;;
2213;SDS011;1113;42.018;23.986;2022-08-19T04:05:34;11.30;;;10.30;;
2213;SDS011;1113;42.018;23.986;2022-08-19T04:08:02;12.00;;;10.90;;
2213;SDS011;1113;42.018;23.986;2022-08-19T04:10:34;11.87;;;10.80;;
2213;SDS011;1113;42.018;23.986;2022-08-19T04:13:01;12.60;;;11.40;;
2213;SDS011;1113;42.018;23.986;2022-08-19T04:15:29;15.40;;;11.37;;
2213;SDS011;1113;42.018;23.986;2022-08-19T04:17:59;12.67;;;11.40;;
2213;SDS011;1113;42.018;23.986;2022-08-19T04:20:26;14.00;;;12.60;;
2213;SDS011;1113;42.018;23.986;2022-08-19T04:22:52;13.40;;;12.20;;
2213;SDS011;1113;42.018;23.986;2022-08-19T04:25:19;13.90;;;12.57;;
2213;SDS011;1113;42.018;23.986;2022-08-19T04:27:47;14.17;;;12.67;;
2213;SDS011;1113;42.018;23.986;2022-08-19T04:30:13;14.83;;;13.40;;
2213;SDS011;1113;42.018;23.986;2022-08-19T04:32:40;16.77;;;12.30;;
2213;SDS011;1113;42.018;23.986;2022-08-19T04:35:10;17.87;;;16.13;;
2213;SDS011;1113;42.018;23.986;2022-08-19T04:37:36;16.47;;;14.97;;
2213;SDS011;1113;42.018;23.986;2022-08-19T04:40:05;14.70;;;13.20;;
2213;SDS011;1113;42.018;23.986;2022-08-19T04:42:50;20.57;;;13.70;;
2213;SDS011;1113;42.018;23.986;2022-08-19T04:45:19;19.20;;;15.30;;
2213;SDS011;1113;42.018;23.986;2022-08-19T04:47:45;16.60;;;14.97;;
2213;SDS011;1113;42.018;23.986;2022-08-19T04:50:12;15.33;;;13.83;;
2213;SDS011;1113;42.018;23.986;2022-08-19T04:52:39;15.53;;;13.47;;
2213;SDS011;1113;42.018;23.986;2022-08-19T04:55:08;15.90;;;14.20;;
2213;SDS011;1113;42.018;23.986;2022-08-19T04:57:34;16.43;;;14.70;;
2213;SDS011;1113;42.018;23.986;2022-08-19T05:00:07;15.30;;;13.80;;
2213;SDS011;1113;42.018;23.986;2022-08-19T05:02:34;15.97;;;14.27;;
2213;SDS011;1113;42.018;23.986;2022-08-19T05:05:01;14.73;;;13.20;;
2213;SDS011;1113;42.018;23.986;2022-08-19T05:07:29;14.80;;;13.23;;
2213;SDS011;1113;42.018;23.986;2022-08-19T05:09:56;15.57;;;14.00;;
2213;SDS011;1113;42.018;23.986;2022-08-19T05:12:22;15.33;;;13.93;;
2213;SDS011;1113;42.018;23.986;2022-08-19T05:14:49;16.90;;;14.90;;
2213;SDS011;1113;42.018;23.986;2022-08-19T05:17:18;14.00;;;12.70;;
2213;SDS011;1113;42.018;23.986;2022-08-19T05:19:44;17.40;;;14.00;;
2213;SDS011;1113;42.018;23.986;2022-08-19T05:22:29;16.60;;;13.70;;
2213;SDS011;1113;42.018;23.986;2022-08-19T05:25:00;15.80;;;13.40;;
2213;SDS011;1113;42.018;23.986;2022-08-19T05:27:27;20.00;;;12.90;;
2213;SDS011;1113;42.018;23.986;2022-08-19T05:29:53;17.23;;;13.80;;
2213;SDS011;1113;42.018;23.986;2022-08-19T05:32:21;16.97;;;13.10;;
2213;SDS011;1113;42.018;23.986;2022-08-19T05:34:48;17.13;;;14.43;;
2213;SDS011;1113;42.018;23.986;2022-08-19T05:37:15;19.03;;;14.40;;
2213;SDS011;1113;42.018;23.986;2022-08-19T05:39:42;15.30;;;13.30;;
2213;SDS011;1113;42.018;23.986;2022-08-19T05:42:09;19.47;;;12.73;;
2213;SDS011;1113;42.018;23.986;2022-08-19T05:44:38;15.50;;;13.90;;
2213;SDS011;1113;42.018;23.986;2022-08-19T05:47:09;15.03;;;13.53;;
2213;SDS011;1113;42.018;23.986;2022-08-19T05:49:37;20.40;;;13.17;;
2213;SDS011;1113;42.018;23.986;2022-08-19T05:52:04;16.00;;;14.30;;
2213;SDS011;1113;42.018;23.986;2022-08-19T05:54:32;14.47;;;13.07;;
2213;SDS011;1113;42.018;23.986;2022-08-19T05:57:00;17.27;;;15.47;;
2213;SDS011;1113;42.018;23.986;2022-08-19T05:59:26;16.93;;;15.23;;
2213;SDS011;1113;42.018;23.986;2022-08-19T06:01:53;18.57;;;15.60;;
2213;SDS011;1113;42.018;23.986;2022-08-19T06:04:22;16.53;;;14.60;;
2213;SDS011;1113;42.018;23.986;2022-08-19T06:06:51;16.17;;;14.43;;
2213;SDS011;1113;42.018;23.986;2022-08-19T06:09:18;15.13;;;13.53;;
2213;SDS011;1113;42.018;23.986;2022-08-19T06:11:45;14.20;;;12.80;;
2213;SDS011;1113;42.018;23.986;2022-08-19T06:14:13;18.00;;;12.77;;
2213;SDS011;1113;42.018;23.986;2022-08-19T06:16:41;18.90;;;13.53;;
2213;SDS011;1113;42.018;23.986;2022-08-19T06:19:12;16.13;;;12.33;;
2213;SDS011;1113;42.018;23.986;2022-08-19T06:21:39;16.10;;;13.50;;
2213;SDS011;1113;42.018;23.986;2022-08-19T06:24:09;16.70;;;14.23;;
2213;SDS011;1113;42.018;23.986;2022-08-19T06:26:37;16.90;;;13.90;;
2213;SDS011;1113;42.018;23.986;2022-08-19T06:29:03;18.03;;;13.60;;
2213;SDS011;1113;42.018;23.986;2022-08-19T06:31:31;14.73;;;12.03;;
2213;SDS011;1113;42.018;23.986;2022-08-19T06:33:59;12.70;;;11.50;;
2213;SDS011;1113;42.018;23.986;2022-08-19T06:36:28;13.30;;;11.47;;
2213;SDS011;1113;42.018;23.986;2022-08-19T06:38:59;14.20;;;12.50;;
2213;SDS011;1113;42.018;23.986;2022-08-19T06:41:27;16.37;;;11.67;;
2213;SDS011;1113;42.018;23.986;2022-08-19T06:43:54;13.00;;;11.73;;
2213;SDS011;1113;42.018;23.986;2022-08-19T06:46:21;13.10;;;11.70;;
2213;SDS011;1113;42.018;23.986;2022-08-19T06:48:48;16.50;;;12.00;;
2213;SDS011;1113;42.018;23.986;2022-08-19T06:51:15;17.43;;;12.43;;
2213;SDS011;1113;42.018;23.986;2022-08-19T06:53:43;10.80;;;9.70;;
2213;SDS011;1113;42.018;23.986;2022-08-19T06:56:11;10.73;;;9.63;;
2213;SDS011;1113;42.018;23.986;2022-08-19T06:58:39;11.03;;;9.93;;
2213;SDS011;1113;42.018;23.986;2022-08-19T07:01:07;13.60;;;12.20;;
2213;SDS011;1113;42.018;23.986;2022-08-19T07:03:35;11.40;;;10.10;;
2213;SDS011;1113;42.018;23.986;2022-08-19T07:06:03;11.70;;;10.60;;
2213;SDS011;1113;42.018;23.986;2022-08-19T07:08:30;10.93;;;9.90;;
2213;SDS011;1113;42.018;23.986;2022-08-19T07:10:57;9.33;;;8.43;;
2213;SDS011;1113;42.018;23.986;2022-08-19T07:13:23;12.43;;;9.70;;
2213;SDS011;1113;42.018;23.986;2022-08-19T07:15:52;13.17;;;8.83;;
2213;SDS011;1113;42.018;23.986;2022-08-19T07:18:18;10.60;;;8.67;;
2213;SDS011;1113;42.018;23.986;2022-08-19T07:20:46;9.50;;;7.73;;
2213;SDS011;1113;42.018;23.986;2022-08-19T07:23:13;9.93;;;8.93;;
2213;SDS011;1113;42.018;23.986;2022-08-19T07:25:39;10.03;;;9.13;;
2213;SDS011;1113;42.018;23.986;2022-08-19T07:28:06;9.97;;;9.07;;
2213;SDS011;1113;42.018;23.986;2022-08-19T07:30:36;11.50;;;10.40;;
2213;SDS011;1113;42.018;23.986;2022-08-19T07:33:04;10.10;;;9.10;;
2213;SDS011;1113;42.018;23.986;2022-08-19T07:35:31;10.40;;;9.50;;
2213;SDS011;1113;42.018;23.986;2022-08-19T07:37:58;10.97;;;9.87;;
2213;SDS011;1113;42.018;23.986;2022-08-19T07:40:28;10.00;;;9.10;;
2213;SDS011;1113;42.018;23.986;2022-08-19T07:42:54;10.20;;;9.30;;
2213;SDS011;1113;42.018;23.986;2022-08-19T07:45:21;10.93;;;9.90;;
2213;SDS011;1113;42.018;23.986;2022-08-19T07:47:48;11.30;;;10.27;;
2213;SDS011;1113;42.018;23.986;2022-08-19T07:50:16;10.73;;;9.73;;
2213;SDS011;1113;42.018;23.986;2022-08-19T07:52:44;10.30;;;9.30;;
2213;SDS011;1113;42.018;23.986;2022-08-19T07:55:11;10.40;;;9.60;;
2213;SDS011;1113;42.018;23.986;2022-08-19T07:57:38;11.17;;;9.13;;
2213;SDS011;1113;42.018;23.986;2022-08-19T08:00:05;10.83;;;9.90;;
2213;SDS011;1113;42.018;23.986;2022-08-19T08:02:32;9.53;;;7.40;;
2213;SDS011;1113;42.018;23.986;2022-08-19T08:04:58;9.37;;;8.40;;
2213;SDS011;1113;42.018;23.986;2022-08-19T08:07:44;13.60;;;8.57;;
2213;SDS011;1113;42.018;23.986;2022-08-19T08:10:28;5.93;;;5.33;;
2213;SDS011;1113;42.018;23.986;2022-08-19T08:12:54;6.97;;;6.17;;
2213;SDS011;1113;42.018;23.986;2022-08-19T08:15:21;7.87;;;5.40;;
2213;SDS011;1113;42.018;23.986;2022-08-19T08:17:47;15.07;;;6.43;;
2213;SDS011;1113;42.018;23.986;2022-08-19T08:20:14;6.00;;;5.40;;
2213;SDS011;1113;42.018;23.986;2022-08-19T08:22:44;6.13;;;4.97;;
2213;SDS011;1113;42.018;23.986;2022-08-19T08:25:24;7.80;;;5.20;;
2213;SDS011;1113;42.018;23.986;2022-08-19T08:27:51;5.83;;;4.93;;
2213;SDS011;1113;42.018;23.986;2022-08-19T08:30:19;5.87;;;5.27;;
2213;SDS011;1113;42.018;23.986;2022-08-19T08:32:45;6.10;;;5.40;;
2213;SDS011;1113;42.018;23.986;2022-08-19T08:35:13;7.63;;;5.77;;
2213;SDS011;1113;42.018;23.986;2022-08-19T08:37:41;5.70;;;5.20;;
2213;SDS011;1113;42.018;23.986;2022-08-19T08:40:17;23.63;;;7.53;;
2213;SDS011;1113;42.018;23.986;2022-08-19T08:42:46;8.27;;;6.03;;
2213;SDS011;1113;42.018;23.986;2022-08-19T08:45:16;9.43;;;6.40;;
2213;SDS011;1113;42.018;23.986;2022-08-19T08:47:44;6.40;;;5.80;;
2213;SDS011;1113;42.018;23.986;2022-08-19T08:50:13;6.47;;;5.73;;
2213;SDS011;1113;42.018;23.986;2022-08-19T08:52:43;6.90;;;5.40;;
2213;SDS011;1113;42.018;23.986;2022-08-19T08:55:14;7.23;;;6.63;;
2213;SDS011;1113;42.018;23.986;2022-08-19T08:57:43;6.93;;;6.23;;
2213;SDS011;1113;42.018;23.986;2022-08-19T09:00:12;7.00;;;6.40;;
2213;SDS011;1113;42.018;23.986;2022-08-19T09:02:41;6.67;;;6.00;;
2213;SDS011;1113;42.018;23.986;2022-08-19T09:05:08;5.53;;;5.03;;
2213;SDS011;1113;42.018;23.986;2022-08-19T09:07:39;7.83;;;5.90;;
2213;SDS011;1113;42.018;23.986;2022-08-19T09:10:10;7.90;;;5.70;;
2213;SDS011;1113;42.018;23.986;2022-08-19T09:12:43;6.67;;;5.93;;
2213;SDS011;1113;42.018;23.986;2022-08-19T09:15:14;34.17;;;6.57;;
2213;SDS011;1113;42.018;23.986;2022-08-19T09:17:41;11.17;;;6.23;;
2213;SDS011;1113;42.018;23.986;2022-08-19T09:20:12;6.50;;;5.23;;
2213;SDS011;1113;42.018;23.986;2022-08-19T09:22:40;8.20;;;5.10;;
2213;SDS011;1113;42.018;23.986;2022-08-19T09:25:09;6.50;;;5.27;;
2213;SDS011;1113;42.018;23.986;2022-08-19T09:27:36;5.97;;;4.80;;
2213;SDS011;1113;42.018;23.986;2022-08-19T09:30:06;7.70;;;4.73;;
2213;SDS011;1113;42.018;23.986;2022-08-19T09:32:33;7.10;;;4.70;;
2213;SDS011;1113;42.018;23.986;2022-08-19T09:35:00;4.30;;;3.90;;
2213;SDS011;1113;42.018;23.986;2022-08-19T09:37:27;6.00;;;3.77;;
2213;SDS011;1113;42.018;23.986;2022-08-19T09:39:53;6.60;;;4.17;;
2213;SDS011;1113;42.018;23.986;2022-08-19T09:42:20;4.50;;;3.93;;
2213;SDS011;1113;42.018;23.986;2022-08-19T09:44:47;4.57;;;3.80;;
2213;SDS011;1113;42.018;23.986;2022-08-19T09:47:15;6.60;;;3.50;;
2213;SDS011;1113;42.018;23.986;2022-08-19T09:49:41;4.70;;;3.80;;
2213;SDS011;1113;42.018;23.986;2022-08-19T09:52:08;6.80;;;4.43;;
2213;SDS011;1113;42.018;23.986;2022-08-19T09:54:35;6.07;;;4.37;;
2213;SDS011;1113;42.018;23.986;2022-08-19T09:57:02;7.03;;;4.70;;
2213;SDS011;1113;42.018;23.986;2022-08-19T09:59:28;4.80;;;4.30;;
2213;SDS011;1113;42.018;23.986;2022-08-19T10:01:55;5.60;;;5.10;;
2213;SDS011;1113;42.018;23.986;2022-08-19T10:04:23;4.90;;;4.23;;
2213;SDS011;1113;42.018;23.986;2022-08-19T10:07:10;5.80;;;4.10;;
2213;SDS011;1113;42.018;23.986;2022-08-19T10:09:36;4.80;;;4.30;;
2213;SDS011;1113;42.018;23.986;2022-08-19T10:12:04;6.73;;;4.70;;
2213;SDS011;1113;42.018;23.986;2022-08-19T10:14:31;5.30;;;4.23;;
2213;SDS011;1113;42.018;23.986;2022-08-19T10:16:57;4.30;;;3.90;;
2213;SDS011;1113;42.018;23.986;2022-08-19T10:19:26;34.33;;;6.20;;
2213;SDS011;1113;42.018;23.986;2022-08-19T10:21:55;7.83;;;4.00;;
2213;SDS011;1113;42.018;23.986;2022-08-19T10:24:21;5.20;;;3.87;;
2213;SDS011;1113;42.018;23.986;2022-08-19T10:26:49;5.73;;;4.20;;
2213;SDS011;1113;42.018;23.986;2022-08-19T10:29:15;4.30;;;3.90;;
2213;SDS011;1113;42.018;23.986;2022-08-19T10:31:42;55.30;;;8.07;;
2213;SDS011;1113;42.018;23.986;2022-08-19T10:34:09;4.33;;;4.03;;
2213;SDS011;1113;42.018;23.986;2022-08-19T10:36:37;4.00;;;3.60;;
2213;SDS011;1113;42.018;23.986;2022-08-19T10:39:05;8.13;;;4.23;;
2213;SDS011;1113;42.018;23.986;2022-08-19T10:41:33;4.13;;;3.47;;
2213;SDS011;1113;42.018;23.986;2022-08-19T10:44:00;3.70;;;3.40;;
2213;SDS011;1113;42.018;23.986;2022-08-19T10:46:27;4.33;;;3.93;;
2213;SDS011;1113;42.018;23.986;2022-08-19T10:48:56;7.10;;;3.67;;
2213;SDS011;1113;42.018;23.986;2022-08-19T10:51:22;8.40;;;4.07;;
2213;SDS011;1113;42.018;23.986;2022-08-19T10:54:08;6.50;;;3.70;;
2213;SDS011;1113;42.018;23.986;2022-08-19T10:56:35;11.63;;;5.00;;
2213;SDS011;1113;42.018;23.986;2022-08-19T10:59:21;7.00;;;4.00;;
2213;SDS011;1113;42.018;23.986;2022-08-19T11:01:48;5.13;;;4.13;;
2213;SDS011;1113;42.018;23.986;2022-08-19T11:04:15;4.90;;;3.70;;
2213;SDS011;1113;42.018;23.986;2022-08-19T11:06:42;5.80;;;4.03;;
2213;SDS011;1113;42.018;23.986;2022-08-19T11:09:11;6.73;;;4.00;;
2213;SDS011;1113;42.018;23.986;2022-08-19T11:11:38;6.43;;;3.60;;
2213;SDS011;1113;42.018;23.986;2022-08-19T11:14:06;5.97;;;4.20;;
2213;SDS011;1113;42.018;23.986;2022-08-19T11:16:32;20.67;;;4.50;;
2213;SDS011;1113;42.018;23.986;2022-08-19T11:18:59;3.83;;;3.00;;
2213;SDS011;1113;42.018;23.986;2022-08-19T11:21:27;30.07;;;5.20;;
2213;SDS011;1113;42.018;23.986;2022-08-19T11:23:57;5.57;;;4.20;;
2213;SDS011;1113;42.018;23.986;2022-08-19T11:26:25;6.93;;;4.60;;
2213;SDS011;1113;42.018;23.986;2022-08-19T11:28:52;5.20;;;4.07;;
2213;SDS011;1113;42.018;23.986;2022-08-19T11:31:20;10.97;;;4.00;;
2213;SDS011;1113;42.018;23.986;2022-08-19T11:33:47;6.53;;;4.40;;
2213;SDS011;1113;42.018;23.986;2022-08-19T11:36:15;6.37;;;4.47;;
2213;SDS011;1113;42.018;23.986;2022-08-19T11:38:42;5.73;;;3.67;;
2213;SDS011;1113;42.018;23.986;2022-08-19T11:41:09;8.40;;;4.63;;
2213;SDS011;1113;42.018;23.986;2022-08-19T11:43:37;5.47;;;3.87;;
2213;SDS011;1113;42.018;23.986;2022-08-19T11:46:06;9.60;;;3.97;;
2213;SDS011;1113;42.018;23.986;2022-08-19T11:48:33;7.23;;;4.60;;
2213;SDS011;1113;42.018;23.986;2022-08-19T11:51:02;6.33;;;4.70;;
2213;SDS011;1113;42.018;23.986;2022-08-19T11:53:31;6.87;;;4.07;;
2213;SDS011;1113;42.018;23.986;2022-08-19T11:55:58;5.83;;;4.10;;
2213;SDS011;1113;42.018;23.986;2022-08-19T11:58:24;8.83;;;4.40;;
2213;SDS011;1113;42.018;23.986;2022-08-19T12:00:52;7.63;;;4.50;;
2213;SDS011;1113;42.018;23.986;2022-08-19T12:03:19;4.90;;;4.40;;
2213;SDS011;1113;42.018;23.986;2022-08-19T12:05:45;7.30;;;4.40;;
2213;SDS011;1113;42.018;23.986;2022-08-19T12:08:12;4.57;;;3.97;;
2213;SDS011;1113;42.018;23.986;2022-08-19T12:10:40;8.40;;;4.33;;
2213;SDS011;1113;42.018;23.986;2022-08-19T12:13:07;6.33;;;4.50;;
2213;SDS011;1113;42.018;23.986;2022-08-19T12:15:35;6.23;;;3.97;;
2213;SDS011;1113;42.018;23.986;2022-08-19T12:18:03;6.10;;;4.13;;
2213;SDS011;1113;42.018;23.986;2022-08-19T12:20:30;5.00;;;4.50;;
2213;SDS011;1113;42.018;23.986;2022-08-19T12:22:56;7.43;;;4.50;;
2213;SDS011;1113;42.018;23.986;2022-08-19T12:25:23;8.37;;;4.13;;
2213;SDS011;1113;42.018;23.986;2022-08-19T12:27:49;5.40;;;4.67;;
2213;SDS011;1113;42.018;23.986;2022-08-19T12:30:16;8.77;;;4.70;;
2213;SDS011;1113;42.018;23.986;2022-08-19T12:32:43;5.60;;;4.30;;
2213;SDS011;1113;42.018;23.986;2022-08-19T12:35:11;9.07;;;4.60;;
2213;SDS011;1113;42.018;23.986;2022-08-19T12:37:38;5.40;;;4.90;;
2213;SDS011;1113;42.018;23.986;2022-08-19T12:40:10;6.60;;;4.60;;
2213;SDS011;1113;42.018;23.986;2022-08-19T12:42:37;7.53;;;4.40;;
2213;SDS011;1113;42.018;23.986;2022-08-19T12:45:07;6.73;;;4.53;;
2213;SDS011;1113;42.018;23.986;2022-08-19T12:47:34;6.10;;;4.50;;
2213;SDS011;1113;42.018;23.986;2022-08-19T12:50:00;6.67;;;5.00;;
2213;SDS011;1113;42.018;23.986;2022-08-19T12:52:29;5.07;;;4.20;;
2213;SDS011;1113;42.018;23.986;2022-08-19T12:54:55;8.13;;;4.90;;
2213;SDS011;1113;42.018;23.986;2022-08-19T12:57:23;7.23;;;5.00;;
2213;SDS011;1113;42.018;23.986;2022-08-19T12:59:51;9.00;;;5.23;;
2213;SDS011;1113;42.018;23.986;2022-08-19T13:02:18;4.50;;;4.10;;
2213;SDS011;1113;42.018;23.986;2022-08-19T13:04:46;5.77;;;5.17;;
2213;SDS011;1113;42.018;23.986;2022-08-19T13:07:12;7.93;;;4.70;;
2213;SDS011;1113;42.018;23.986;2022-08-19T13:09:40;5.30;;;4.80;;
2213;SDS011;1113;42.018;23.986;2022-08-19T13:12:07;5.07;;;4.60;;
2213;SDS011;1113;42.018;23.986;2022-08-19T13:14:37;4.63;;;4.00;;
2213;SDS011;1113;42.018;23.986;2022-08-19T13:17:05;5.97;;;5.37;;
2213;SDS011;1113;42.018;23.986;2022-08-19T13:19:32;6.47;;;4.53;;
2213;SDS011;1113;42.018;23.986;2022-08-19T13:21:58;4.93;;;4.40;;
2213;SDS011;1113;42.018;23.986;2022-08-19T13:24:25;7.30;;;4.70;;
2213;SDS011;1113;42.018;23.986;2022-08-19T13:26:53;6.97;;;4.53;;
2213;SDS011;1113;42.018;23.986;2022-08-19T13:29:19;6.70;;;5.07;;
2213;SDS011;1113;42.018;23.986;2022-08-19T13:32:03;9.33;;;4.87;;
2213;SDS011;1113;42.018;23.986;2022-08-19T13:34:47;9.33;;;5.50;;
2213;SDS011;1113;42.018;23.986;2022-08-19T13:37:16;5.63;;;4.50;;
2213;SDS011;1113;42.018;23.986;2022-08-19T13:40:03;7.70;;;5.80;;
2213;SDS011;1113;42.018;23.986;2022-08-19T13:42:31;5.40;;;4.60;;
2213;SDS011;1113;42.018;23.986;2022-08-19T13:44:58;5.67;;;5.00;;
2213;SDS011;1113;42.018;23.986;2022-08-19T13:47:24;6.10;;;5.50;;
2213;SDS011;1113;42.018;23.986;2022-08-19T13:49:51;6.43;;;5.33;;
2213;SDS011;1113;42.018;23.986;2022-08-19T13:52:18;5.23;;;4.73;;
2213;SDS011;1113;42.018;23.986;2022-08-19T13:54:44;8.30;;;4.63;;
2213;SDS011;1113;42.018;23.986;2022-08-19T13:57:11;5.20;;;4.70;;
2213;SDS011;1113;42.018;23.986;2022-08-19T13:59:40;5.27;;;4.67;;
2213;SDS011;1113;42.018;23.986;2022-08-19T14:02:07;14.00;;;5.27;;
2213;SDS011;1113;42.018;23.986;2022-08-19T14:04:33;8.17;;;5.10;;
2213;SDS011;1113;42.018;23.986;2022-08-19T14:07:00;5.03;;;4.50;;
2213;SDS011;1113;42.018;23.986;2022-08-19T14:09:26;5.47;;;4.97;;
2213;SDS011;1113;42.018;23.986;2022-08-19T14:11:53;6.50;;;4.60;;
2213;SDS011;1113;42.018;23.986;2022-08-19T14:14:20;7.30;;;4.93;;
2213;SDS011;1113;42.018;23.986;2022-08-19T14:16:48;6.60;;;5.43;;
2213;SDS011;1113;42.018;23.986;2022-08-19T14:19:14;7.10;;;4.53;;
2213;SDS011;1113;42.018;23.986;2022-08-19T14:21:41;8.50;;;4.30;;
2213;SDS011;1113;42.018;23.986;2022-08-19T14:24:07;5.47;;;4.97;;
2213;SDS011;1113;42.018;23.986;2022-08-19T14:26:34;5.07;;;4.57;;
2213;SDS011;1113;42.018;23.986;2022-08-19T14:29:01;4.87;;;4.47;;
2213;SDS011;1113;42.018;23.986;2022-08-19T14:31:27;11.93;;;5.17;;
2213;SDS011;1113;42.018;23.986;2022-08-19T14:33:55;5.73;;;4.87;;
2213;SDS011;1113;42.018;23.986;2022-08-19T14:36:22;6.00;;;4.77;;
2213;SDS011;1113;42.018;23.986;2022-08-19T14:38:49;7.10;;;5.30;;
2213;SDS011;1113;42.018;23.986;2022-08-19T14:41:16;6.93;;;4.73;;
2213;SDS011;1113;42.018;23.986;2022-08-19T14:43:44;5.10;;;4.60;;
2213;SDS011;1113;42.018;23.986;2022-08-19T14:46:12;5.07;;;4.63;;
2213;SDS011;1113;42.018;23.986;2022-08-19T14:48:39;5.83;;;5.23;;
2213;SDS011;1113;42.018;23.986;2022-08-19T14:51:07;5.63;;;4.40;;
2213;SDS011;1113;42.018;23.986;2022-08-19T14:53:33;6.00;;;4.77;;
2213;SDS011;1113;42.018;23.986;2022-08-19T14:56:00;5.83;;;4.80;;
2213;SDS011;1113;42.018;23.986;2022-08-19T14:58:27;4.87;;;4.30;;
2213;SDS011;1113;42.018;23.986;2022-08-19T15:00:53;5.20;;;4.70;;